createdAt,value
2022-10-18T00:00:13.655Z,17.70
2022-10-18T00:02:41.662Z,17.70
2022-10-18T00:05:10.053Z,17.60
2022-10-18T00:07:38.057Z,17.60
2022-10-18T00:10:06.880Z,17.70
2022-10-18T00:12:35.603Z,17.60
2022-10-18T00:15:05.995Z,17.60
2022-10-18T00:17:35.295Z,17.60
2022-10-18T00:20:03.367Z,17.60
2022-10-18T00:22:31.591Z,17.60
2022-10-18T00:24:59.897Z,17.60
2022-10-18T00:27:29.597Z,17.50
2022-10-18T00:29:57.681Z,17.40
2022-10-18T00:32:27.193Z,17.40
2022-10-18T00:34:55.226Z,17.40
2022-10-18T00:37:23.236Z,17.40
2022-10-18T00:42:24.581Z,17.40
2022-10-18T00:45:14.145Z,17.40
2022-10-18T00:47:43.663Z,17.40
2022-10-18T00:50:11.699Z,17.40
2022-10-18T00:52:40.843Z,17.40
2022-10-18T00:55:09.722Z,17.40
2022-10-18T00:57:37.886Z,17.40
2022-10-18T01:00:09.789Z,17.40
2022-10-18T01:02:38.020Z,17.50
2022-10-18T01:05:08.853Z,17.50
2022-10-18T01:07:53.900Z,17.50
2022-10-18T01:10:28.157Z,17.50
2022-10-18T01:13:04.238Z,17.50
2022-10-18T01:15:33.257Z,17.50
2022-10-18T01:18:13.182Z,17.50
2022-10-18T01:21:08.504Z,17.50
2022-10-18T01:24:05.902Z,17.50
2022-10-18T01:26:41.206Z,17.50
2022-10-18T01:29:19.461Z,17.40
2022-10-18T01:31:50.042Z,17.40
2022-10-18T01:34:18.969Z,17.30
2022-10-18T01:36:48.381Z,17.30
2022-10-18T01:39:18.237Z,17.30
2022-10-18T01:41:46.261Z,17.20
2022-10-18T01:44:16.567Z,17.20
2022-10-18T01:46:44.682Z,17.20
2022-10-18T01:49:14.089Z,17.20
2022-10-18T01:51:42.121Z,17.20
2022-10-18T01:54:10.988Z,17.20
2022-10-18T01:56:42.940Z,17.10
2022-10-18T02:02:11.018Z,17.20
2022-10-18T02:08:28.859Z,17.20
2022-10-18T02:10:58.856Z,17.20
2022-10-18T02:13:27.835Z,17.20
2022-10-18T02:15:57.523Z,17.10
2022-10-18T02:18:28.578Z,17.10
2022-10-18T02:20:56.595Z,17.00
2022-10-18T02:23:26.270Z,17.00
2022-10-18T02:25:54.341Z,17.00
2022-10-18T02:28:22.396Z,17.10
2022-10-18T02:30:52.646Z,17.10
2022-10-18T02:33:22.584Z,17.00
2022-10-18T02:35:52.461Z,17.00
2022-10-18T02:38:20.540Z,16.90
2022-10-18T02:40:49.907Z,16.80
2022-10-18T02:43:17.946Z,16.90
2022-10-18T02:45:45.972Z,16.80
2022-10-18T02:48:14.015Z,16.80
2022-10-18T02:50:42.023Z,16.80
2022-10-18T02:53:10.066Z,16.80
2022-10-18T02:55:38.099Z,16.80
2022-10-18T02:58:07.491Z,16.80
2022-10-18T03:00:35.503Z,16.80
2022-10-18T03:03:03.541Z,16.80
2022-10-18T03:05:31.551Z,16.80
2022-10-18T03:07:59.581Z,16.80
2022-10-18T03:10:27.593Z,16.80
2022-10-18T03:12:55.626Z,16.80
2022-10-18T03:15:25.048Z,16.70
2022-10-18T03:17:53.172Z,16.70
2022-10-18T03:20:21.204Z,16.60
2022-10-18T03:22:49.238Z,16.60
2022-10-18T03:25:17.234Z,16.60
2022-10-18T03:27:45.264Z,16.60
2022-10-18T03:30:13.789Z,16.60
2022-10-18T03:32:43.187Z,16.50
2022-10-18T03:35:11.235Z,16.60
2022-10-18T03:37:39.275Z,16.60
2022-10-18T03:40:08.913Z,16.60
2022-10-18T03:42:36.951Z,16.60
2022-10-18T03:45:05.385Z,16.50
2022-10-18T03:47:33.410Z,16.50
2022-10-18T03:50:02.756Z,16.50
2022-10-18T03:52:31.057Z,16.50
2022-10-18T03:54:59.371Z,16.40
2022-10-18T03:57:27.390Z,16.40
2022-10-18T03:59:55.397Z,16.30
2022-10-18T04:02:23.425Z,16.30
2022-10-18T04:04:51.470Z,16.30
2022-10-18T04:07:20.866Z,16.30
2022-10-18T04:09:48.871Z,16.40
2022-10-18T04:12:16.903Z,16.40
2022-10-18T04:14:44.903Z,16.40
2022-10-18T04:17:12.939Z,16.40
2022-10-18T04:19:41.843Z,16.30
2022-10-18T04:22:10.567Z,16.30
2022-10-18T04:24:39.984Z,16.30
2022-10-18T04:27:08.193Z,16.30
2022-10-18T04:29:36.201Z,16.30
2022-10-18T04:32:04.223Z,16.20
2022-10-18T04:34:32.253Z,16.20
2022-10-18T04:37:00.313Z,16.20
2022-10-18T04:39:28.382Z,16.30
2022-10-18T04:41:57.784Z,16.30
2022-10-18T04:44:25.792Z,16.20
2022-10-18T04:46:53.782Z,16.20
2022-10-18T04:49:21.815Z,16.20
2022-10-18T04:51:49.838Z,16.10
2022-10-18T04:54:17.956Z,16.10
2022-10-18T04:56:45.964Z,16.10
2022-10-18T04:59:15.345Z,16.20
2022-10-18T05:01:43.458Z,16.10
2022-10-18T05:04:11.575Z,16.10
2022-10-18T05:06:39.577Z,16.10
2022-10-18T05:09:07.614Z,16.20
2022-10-18T05:11:35.622Z,16.10
2022-10-18T05:14:03.669Z,16.10
2022-10-18T05:16:33.215Z,16.10
2022-10-18T05:19:01.253Z,16.10
2022-10-18T05:21:29.263Z,16.10
2022-10-18T05:23:57.304Z,16.10
2022-10-18T05:26:25.313Z,16.10
2022-10-18T05:28:53.394Z,16.00
2022-10-18T05:31:21.439Z,16.10
2022-10-18T05:33:50.827Z,16.10
2022-10-18T05:36:18.831Z,16.00
2022-10-18T05:38:48.377Z,16.00
2022-10-18T05:41:16.392Z,16.00
2022-10-18T05:43:44.423Z,16.00
2022-10-18T05:46:15.563Z,16.00
2022-10-18T05:48:44.686Z,15.90
2022-10-18T05:51:14.121Z,16.00
2022-10-18T05:53:42.170Z,16.00
2022-10-18T05:56:11.876Z,16.00
2022-10-18T05:58:40.212Z,16.00
2022-10-18T06:01:08.468Z,15.90
2022-10-18T06:03:36.545Z,16.00
2022-10-18T06:06:05.920Z,16.00
2022-10-18T06:08:35.495Z,16.00
2022-10-18T06:11:07.811Z,15.90
2022-10-18T06:13:35.835Z,15.90
2022-10-18T06:16:03.860Z,15.90
2022-10-18T06:18:31.894Z,16.00
2022-10-18T06:21:00.011Z,15.90
2022-10-18T06:23:28.087Z,15.90
2022-10-18T06:25:59.782Z,15.90
2022-10-18T06:28:28.345Z,16.00
2022-10-18T06:30:56.394Z,16.00
2022-10-18T06:33:24.534Z,15.90
2022-10-18T06:35:56.730Z,15.90
2022-10-18T06:38:24.743Z,15.90
2022-10-18T06:40:52.769Z,15.90
2022-10-18T06:43:22.197Z,15.90
2022-10-18T06:45:50.278Z,15.90
2022-10-18T06:50:56.936Z,15.90
2022-10-18T06:53:25.099Z,16.00
2022-10-18T06:55:53.151Z,16.10
2022-10-18T06:58:22.502Z,16.00
2022-10-18T07:00:50.526Z,16.00
2022-10-18T07:03:18.544Z,16.10
2022-10-18T07:05:46.590Z,16.10
2022-10-18T07:08:14.599Z,16.10
2022-10-18T07:10:42.626Z,16.10
2022-10-18T07:13:31.383Z,16.10
2022-10-18T07:16:04.548Z,16.10
2022-10-18T07:18:33.644Z,16.10
2022-10-18T07:21:03.456Z,16.10
2022-10-18T07:23:33.421Z,16.10
2022-10-18T07:26:01.994Z,16.20
2022-10-18T07:28:30.112Z,16.20
2022-10-18T07:31:02.399Z,16.20
2022-10-18T07:33:35.252Z,16.20
2022-10-18T07:36:03.592Z,16.20
2022-10-18T07:38:31.655Z,16.30
2022-10-18T07:40:59.827Z,16.20
2022-10-18T07:43:27.889Z,16.30
2022-10-18T07:45:56.169Z,16.30
2022-10-18T07:48:24.234Z,16.30
2022-10-18T07:50:53.622Z,16.30
2022-10-18T07:53:21.655Z,16.30
2022-10-18T07:55:49.656Z,16.30
2022-10-18T07:58:17.784Z,16.30
2022-10-18T08:00:45.820Z,16.30
2022-10-18T08:03:13.855Z,16.30
2022-10-18T08:05:41.851Z,16.30
2022-10-18T08:08:11.295Z,16.30
2022-10-18T08:10:39.354Z,16.30
2022-10-18T08:13:07.354Z,16.30
2022-10-18T08:15:35.390Z,16.20
2022-10-18T08:18:03.396Z,16.20
2022-10-18T08:20:33.267Z,16.20
2022-10-18T08:23:01.298Z,16.20
2022-10-18T08:25:30.740Z,16.20
2022-10-18T08:27:58.804Z,16.30
2022-10-18T08:30:26.820Z,16.20
2022-10-18T08:32:54.864Z,16.20
2022-10-18T08:35:22.868Z,16.20
2022-10-18T08:37:51.371Z,16.20
2022-10-18T08:40:20.401Z,16.20
2022-10-18T08:43:02.906Z,16.30
2022-10-18T08:45:41.937Z,16.20
2022-10-18T08:48:18.015Z,16.30
2022-10-18T08:50:46.100Z,16.30
2022-10-18T08:53:16.354Z,16.20
2022-10-18T08:55:46.219Z,16.20
2022-10-18T08:58:18.149Z,16.30
2022-10-18T09:00:49.856Z,16.30
2022-10-18T09:03:27.538Z,16.30
2022-10-18T09:05:57.202Z,16.30
2022-10-18T09:08:41.722Z,16.30
2022-10-18T09:11:17.531Z,16.30
2022-10-18T09:14:10.687Z,16.20
2022-10-18T09:16:41.165Z,16.20
2022-10-18T09:19:13.755Z,16.20
2022-10-18T09:21:45.543Z,16.20
2022-10-18T09:24:14.699Z,16.30
2022-10-18T09:26:45.457Z,16.30
2022-10-18T09:29:27.251Z,16.20
2022-10-18T09:31:58.924Z,16.20
2022-10-18T09:34:28.257Z,16.20
2022-10-18T09:36:56.284Z,16.20
2022-10-18T09:39:25.077Z,16.20
2022-10-18T09:41:54.333Z,16.20
2022-10-18T09:44:25.276Z,16.20
2022-10-18T09:46:54.648Z,16.20
2022-10-18T09:49:24.514Z,16.20
2022-10-18T09:51:52.764Z,16.30
2022-10-18T09:54:23.304Z,16.20
2022-10-18T09:56:52.175Z,16.20
2022-10-18T09:59:37.366Z,16.20
2022-10-18T10:02:05.607Z,16.20
2022-10-18T10:04:33.741Z,16.20
2022-10-18T10:07:02.694Z,16.20
2022-10-18T10:09:32.022Z,16.20
2022-10-18T10:12:00.318Z,16.20
2022-10-18T10:14:30.853Z,16.20
2022-10-18T10:16:59.710Z,16.20
2022-10-18T10:19:29.504Z,16.20
2022-10-18T10:22:00.229Z,16.20
2022-10-18T10:24:34.686Z,16.30
2022-10-18T10:27:04.115Z,16.20
2022-10-18T10:29:58.187Z,16.20
2022-10-18T10:32:30.286Z,16.20
2022-10-18T10:34:58.412Z,16.30
2022-10-18T10:37:34.808Z,16.30
2022-10-18T10:40:22.071Z,16.30
2022-10-18T10:43:12.854Z,16.40
2022-10-18T10:46:03.164Z,16.40
2022-10-18T10:48:33.686Z,16.50
2022-10-18T10:51:06.647Z,16.60
2022-10-18T10:53:45.369Z,16.50
2022-10-18T10:56:19.203Z,16.50
2022-10-18T10:58:47.224Z,16.60
2022-10-18T11:01:24.558Z,16.50
2022-10-18T11:03:53.975Z,16.60
2022-10-18T11:06:49.663Z,16.70
2022-10-18T11:09:25.647Z,16.70
2022-10-18T11:11:59.671Z,16.60
2022-10-18T11:14:28.188Z,16.70
2022-10-18T11:17:03.069Z,16.70
2022-10-18T11:19:40.208Z,16.80
2022-10-18T11:22:10.823Z,16.80
2022-10-18T11:24:39.239Z,16.80
2022-10-18T11:27:09.900Z,16.80
2022-10-18T11:29:48.101Z,16.80
2022-10-18T11:32:21.294Z,16.80
2022-10-18T11:34:54.470Z,16.80
2022-10-18T11:37:41.848Z,16.90
2022-10-18T11:40:24.853Z,16.90
2022-10-18T11:42:55.692Z,16.80
2022-10-18T11:48:03.341Z,17.00
2022-10-18T11:50:34.156Z,17.00
2022-10-18T11:53:08.105Z,17.10
2022-10-18T11:55:44.774Z,17.20
2022-10-18T11:58:23.843Z,17.30
2022-10-18T12:00:53.470Z,17.30
2022-10-18T12:03:31.549Z,17.20
2022-10-18T12:06:00.149Z,17.20
2022-10-18T12:08:30.344Z,17.20
2022-10-18T12:11:05.217Z,17.30
2022-10-18T12:13:36.192Z,17.30
2022-10-18T12:16:04.999Z,17.30
2022-10-18T12:18:34.521Z,17.50
2022-10-18T12:21:02.761Z,17.50
2022-10-18T12:23:36.896Z,17.60
2022-10-18T12:26:06.278Z,17.60
2022-10-18T12:28:38.809Z,17.70
2022-10-18T12:31:08.931Z,17.60
2022-10-18T12:33:40.279Z,17.70
2022-10-18T12:36:25.568Z,17.60
2022-10-18T12:38:54.747Z,17.60
2022-10-18T12:41:24.464Z,17.80
2022-10-18T12:43:52.627Z,17.70
2022-10-18T12:46:20.713Z,17.80
2022-10-18T12:48:51.840Z,17.70
2022-10-18T12:51:20.593Z,17.60
2022-10-18T12:53:49.405Z,17.70
2022-10-18T12:56:38.133Z,17.70
2022-10-18T12:59:51.348Z,17.90
2022-10-18T13:02:32.562Z,17.90
2022-10-18T13:05:02.521Z,17.80
2022-10-18T13:07:43.243Z,17.80
2022-10-18T13:10:41.510Z,17.90
2022-10-18T13:13:39.743Z,18.10
2022-10-18T13:16:25.915Z,18.30
2022-10-18T13:18:55.212Z,18.20
2022-10-18T13:21:30.863Z,18.10
2022-10-18T13:24:15.995Z,18.10
2022-10-18T13:26:54.139Z,18.10
2022-10-18T13:29:43.334Z,18.10
2022-10-18T13:32:18.737Z,18.20
2022-10-18T13:34:46.782Z,18.20
2022-10-18T13:37:24.069Z,18.10
2022-10-18T13:39:52.653Z,18.20
2022-10-18T13:42:29.885Z,18.30
2022-10-18T13:45:31.461Z,18.30
2022-10-18T13:48:04.680Z,18.20
2022-10-18T13:50:34.976Z,18.10
2022-10-18T13:53:38.609Z,18.10
2022-10-18T13:56:51.151Z,18.30
2022-10-18T14:02:50.476Z,18.30
2022-10-18T14:05:26.059Z,18.30
2022-10-18T14:07:54.130Z,18.20
2022-10-18T14:10:29.767Z,18.20
2022-10-18T14:13:18.106Z,18.00
2022-10-18T14:15:47.514Z,17.90
2022-10-18T14:18:17.284Z,17.60
2022-10-18T14:21:01.304Z,17.40
2022-10-18T14:23:35.889Z,17.30
2022-10-18T14:26:14.924Z,17.10
2022-10-18T14:28:59.132Z,17.10
2022-10-18T14:31:29.218Z,17.00
2022-10-18T14:33:58.880Z,17.10
2022-10-18T14:36:28.225Z,17.10
2022-10-18T14:38:57.080Z,16.90
2022-10-18T14:41:25.948Z,16.90
2022-10-18T14:43:54.898Z,16.90
2022-10-18T14:46:27.282Z,16.80
2022-10-18T14:48:59.641Z,16.70
2022-10-18T14:51:27.820Z,16.70
2022-10-18T14:53:55.859Z,16.60
2022-10-18T14:56:26.632Z,16.60
2022-10-18T14:58:54.978Z,16.50
2022-10-18T15:01:24.310Z,16.50
2022-10-18T15:03:52.376Z,16.40
2022-10-18T15:06:21.747Z,16.30
2022-10-18T15:08:52.636Z,16.30
2022-10-18T15:11:20.652Z,16.20
2022-10-18T15:13:50.427Z,16.10
2022-10-18T15:16:18.711Z,16.00
2022-10-18T15:19:00.641Z,16.00
2022-10-18T15:21:30.015Z,15.90
2022-10-18T15:24:19.507Z,15.90
2022-10-18T15:26:47.522Z,15.80
2022-10-18T15:29:17.990Z,15.80
2022-10-18T15:31:46.027Z,15.70
2022-10-18T15:34:17.533Z,15.60
2022-10-18T15:36:46.987Z,15.50
2022-10-18T15:39:17.188Z,15.50
2022-10-18T15:41:48.990Z,15.40
2022-10-18T15:44:27.947Z,15.40
2022-10-18T15:46:56.933Z,15.20
2022-10-18T15:49:55.529Z,15.20
2022-10-18T15:52:37.806Z,15.10
2022-10-18T15:55:39.750Z,15.10
2022-10-18T15:58:07.966Z,15.00
2022-10-18T16:00:36.030Z,15.00
2022-10-18T16:03:04.053Z,14.80
2022-10-18T16:05:32.066Z,14.80
2022-10-18T16:08:01.916Z,14.50
2022-10-18T16:10:29.990Z,14.50
2022-10-18T16:12:58.037Z,14.40
2022-10-18T16:15:26.060Z,14.40
2022-10-18T16:17:54.077Z,14.40
2022-10-18T16:20:23.725Z,14.30
2022-10-18T16:22:51.810Z,14.30
2022-10-18T16:25:21.203Z,14.20
2022-10-18T16:27:49.209Z,14.10
2022-10-18T16:30:18.892Z,14.00
2022-10-18T16:32:48.916Z,13.90
2022-10-18T16:35:17.108Z,13.90
2022-10-18T16:37:45.155Z,13.80
2022-10-18T16:40:26.038Z,13.70
2022-10-18T16:42:54.087Z,13.70
2022-10-18T16:45:22.128Z,13.60
2022-10-18T16:47:50.171Z,13.50
2022-10-18T16:50:20.455Z,13.40
2022-10-18T16:52:48.470Z,13.40
2022-10-18T16:55:24.988Z,13.40
2022-10-18T16:57:54.451Z,13.40
2022-10-18T17:00:22.997Z,13.30
2022-10-18T17:02:51.081Z,13.20
2022-10-18T17:05:19.343Z,13.20
2022-10-18T17:07:47.540Z,13.10
2022-10-18T17:10:16.091Z,13.10
2022-10-18T17:12:44.145Z,13.00
2022-10-18T17:15:13.592Z,12.90
2022-10-18T17:17:41.771Z,12.80
2022-10-18T17:20:10.160Z,12.80
2022-10-18T17:22:38.200Z,12.80
2022-10-18T17:25:06.794Z,12.80
2022-10-18T17:27:34.984Z,12.70
2022-10-18T17:30:03.435Z,12.70
2022-10-18T17:32:32.881Z,12.70
2022-10-18T17:35:00.942Z,12.60
2022-10-18T17:37:29.005Z,12.60
2022-10-18T17:39:57.029Z,12.50
2022-10-18T17:42:25.084Z,12.50
2022-10-18T17:44:55.603Z,12.40
2022-10-18T17:47:25.908Z,12.40
2022-10-18T17:49:55.275Z,12.30
2022-10-18T17:52:23.318Z,12.30
2022-10-18T17:54:51.328Z,12.20
2022-10-18T17:57:19.428Z,12.10
2022-10-18T17:59:48.737Z,12.10
2022-10-18T18:02:16.777Z,12.10
2022-10-18T18:05:31.383Z,12.00
2022-10-18T18:08:03.805Z,11.90
2022-10-18T18:10:33.445Z,11.90
2022-10-18T18:13:01.567Z,11.80
2022-10-18T18:15:29.577Z,11.80
2022-10-18T18:17:58.231Z,11.70
2022-10-18T18:20:26.502Z,11.70
2022-10-18T18:22:54.554Z,11.60
2022-10-18T18:25:23.965Z,11.60
2022-10-18T18:27:51.999Z,11.50
2022-10-18T18:30:21.815Z,11.50
2022-10-18T18:32:49.855Z,11.50
2022-10-18T18:35:17.953Z,11.40
2022-10-18T18:37:45.979Z,11.40
2022-10-18T18:40:14.000Z,11.40
2022-10-18T18:42:43.380Z,11.30
2022-10-18T18:45:11.388Z,11.30
2022-10-18T18:47:40.014Z,11.20
2022-10-18T18:50:09.132Z,11.20
2022-10-18T18:52:37.160Z,11.20
2022-10-18T18:55:05.722Z,11.10
2022-10-18T18:57:33.941Z,11.10
2022-10-18T19:00:03.479Z,11.00
2022-10-18T19:02:31.493Z,10.90
2022-10-18T19:04:59.498Z,11.00
2022-10-18T19:07:27.522Z,10.90
2022-10-18T19:09:55.514Z,10.90
2022-10-18T19:12:23.538Z,10.90
2022-10-18T19:14:51.549Z,10.80
2022-10-18T19:17:21.990Z,10.80
2022-10-18T19:19:49.995Z,10.80
2022-10-18T19:22:18.037Z,10.80
2022-10-18T19:24:46.034Z,10.80
2022-10-18T19:27:14.071Z,10.80
2022-10-18T19:29:42.076Z,10.90
2022-10-18T19:32:12.224Z,10.80
2022-10-18T19:34:41.767Z,10.80
2022-10-18T19:37:10.513Z,10.80
2022-10-18T19:39:38.510Z,10.80
2022-10-18T19:42:08.995Z,10.80
2022-10-18T19:44:37.407Z,10.70
2022-10-18T19:47:05.735Z,10.70
2022-10-18T19:49:33.841Z,10.80
2022-10-18T19:52:03.243Z,10.70
2022-10-18T19:54:31.247Z,10.70
2022-10-18T19:56:59.275Z,10.70
2022-10-18T19:59:27.382Z,10.70
2022-10-18T20:01:55.466Z,10.70
2022-10-18T20:04:23.463Z,10.70
2022-10-18T20:06:51.492Z,10.80
2022-10-18T20:09:21.649Z,10.80
2022-10-18T20:11:49.679Z,10.80
2022-10-18T20:14:17.681Z,10.80
2022-10-18T20:16:45.702Z,10.90
2022-10-18T20:19:13.700Z,10.90
2022-10-18T20:21:41.735Z,11.00
2022-10-18T20:24:10.350Z,11.00
2022-10-18T20:26:40.215Z,11.10
2022-10-18T20:29:08.366Z,11.10
2022-10-18T20:31:39.015Z,11.10
2022-10-18T20:34:08.182Z,11.20
2022-10-18T20:36:36.291Z,11.20
2022-10-18T20:39:04.963Z,11.30
2022-10-18T20:41:33.841Z,11.40
2022-10-18T20:44:04.081Z,11.30
2022-10-18T20:46:33.095Z,11.40
2022-10-18T20:49:01.094Z,11.40
2022-10-18T20:51:29.191Z,11.50
2022-10-18T20:53:57.275Z,11.50
2022-10-18T20:56:26.686Z,11.50
2022-10-18T20:58:55.717Z,11.50
2022-10-18T21:01:26.000Z,11.50
2022-10-18T21:03:54.916Z,11.60
2022-10-18T21:06:23.895Z,11.60
2022-10-18T21:08:53.890Z,11.60
2022-10-18T21:11:21.942Z,11.60
2022-10-18T21:13:51.871Z,11.60
2022-10-18T21:16:19.952Z,11.70
2022-10-18T21:18:49.385Z,11.70
2022-10-18T21:21:18.452Z,11.70
2022-10-18T21:23:47.724Z,11.80
2022-10-18T21:26:16.258Z,11.80
2022-10-18T21:28:44.340Z,11.80
2022-10-18T21:31:13.860Z,11.90
2022-10-18T21:33:42.048Z,11.90
2022-10-18T21:36:11.577Z,11.90
2022-10-18T21:38:39.577Z,11.90
2022-10-18T21:41:11.208Z,11.90
2022-10-18T21:43:40.616Z,12.00
2022-10-18T21:46:08.722Z,12.00
2022-10-18T21:48:36.745Z,12.00
2022-10-18T21:51:05.093Z,12.00
2022-10-18T21:53:34.503Z,12.00
2022-10-18T21:56:06.459Z,12.10
2022-10-18T21:58:34.998Z,12.00
2022-10-18T22:01:03.274Z,12.10
2022-10-18T22:03:31.321Z,12.10
2022-10-18T22:06:01.298Z,12.10
2022-10-18T22:08:29.419Z,12.10
2022-10-18T22:10:59.297Z,12.10
2022-10-18T22:13:27.566Z,12.10
2022-10-18T22:15:55.707Z,12.10
2022-10-18T22:18:23.741Z,12.00
2022-10-18T22:20:55.557Z,12.00
2022-10-18T22:23:23.659Z,12.10
2022-10-18T22:25:51.641Z,12.10
2022-10-18T22:28:21.023Z,12.10
2022-10-18T22:30:49.071Z,12.10
2022-10-18T22:33:17.108Z,12.10
2022-10-18T22:35:49.504Z,12.10
2022-10-18T22:38:17.534Z,12.10
2022-10-18T22:40:45.970Z,12.10
2022-10-18T22:43:13.993Z,12.00
2022-10-18T22:45:43.376Z,12.10
2022-10-18T22:48:11.413Z,12.10
2022-10-18T22:50:39.415Z,12.10
2022-10-18T22:53:07.441Z,12.10
2022-10-18T22:55:35.469Z,12.10
2022-10-18T22:58:03.486Z,12.10
2022-10-18T23:00:31.537Z,12.10
2022-10-18T23:03:00.984Z,12.10
2022-10-18T23:05:28.979Z,12.10
2022-10-18T23:07:57.007Z,12.20
2022-10-18T23:10:25.008Z,12.20
2022-10-18T23:12:53.043Z,12.20
2022-10-18T23:15:21.042Z,12.20
2022-10-18T23:17:50.123Z,12.20
2022-10-18T23:20:19.498Z,12.20
2022-10-18T23:22:47.653Z,12.20
2022-10-18T23:25:15.824Z,12.20
2022-10-18T23:30:17.857Z,12.20
2022-10-18T23:32:45.896Z,12.20
2022-10-18T23:35:13.900Z,12.20
2022-10-18T23:37:43.294Z,12.20
2022-10-18T23:40:11.879Z,12.20
2022-10-18T23:42:39.924Z,12.20
2022-10-18T23:45:09.283Z,12.20
2022-10-18T23:47:37.320Z,12.20
2022-10-18T23:50:06.292Z,12.20
2022-10-18T23:52:34.320Z,12.20
2022-10-18T23:55:03.688Z,12.20
2022-10-18T23:57:32.006Z,12.10
